sensor_id;sensor_type;location;lat;lon;timestamp;temperature;humidity
16128;DHT22;8168;49.036;7.690;2024-01-27T00:00:02;2.10;99.90
16128;DHT22;8168;49.036;7.690;2024-01-27T00:02:32;2.00;99.90
16128;DHT22;8168;49.036;7.690;2024-01-27T00:05:03;2.00;99.90
16128;DHT22;8168;49.036;7.690;2024-01-27T00:07:34;2.00;99.90
16128;DHT22;8168;49.036;7.690;2024-01-27T00:10:05;2.00;99.90
16128;DHT22;8168;49.036;7.690;2024-01-27T00:12:36;2.00;99.90
16128;DHT22;8168;49.036;7.690;2024-01-27T00:15:07;1.90;99.90
16128;DHT22;8168;49.036;7.690;2024-01-27T00:17:39;2.00;99.90
16128;DHT22;8168;49.036;7.690;2024-01-27T00:20:10;1.90;99.90
16128;DHT22;8168;49.036;7.690;2024-01-27T00:22:41;1.90;99.90
16128;DHT22;8168;49.036;7.690;2024-01-27T00:25:12;1.90;99.90
16128;DHT22;8168;49.036;7.690;2024-01-27T00:27:42;1.90;99.90
16128;DHT22;8168;49.036;7.690;2024-01-27T00:30:13;1.60;99.90
16128;DHT22;8168;49.036;7.690;2024-01-27T00:32:44;1.80;99.90
16128;DHT22;8168;49.036;7.690;2024-01-27T00:35:14;1.90;99.90
16128;DHT22;8168;49.036;7.690;2024-01-27T00:37:45;1.90;99.90
16128;DHT22;8168;49.036;7.690;2024-01-27T00:40:16;1.80;99.90
16128;DHT22;8168;49.036;7.690;2024-01-27T00:42:47;1.80;99.90
16128;DHT22;8168;49.036;7.690;2024-01-27T00:45:18;1.80;99.90
16128;DHT22;8168;49.036;7.690;2024-01-27T00:47:51;1.70;99.90
16128;DHT22;8168;49.036;7.690;2024-01-27T00:50:22;1.70;99.90
16128;DHT22;8168;49.036;7.690;2024-01-27T00:52:52;1.70;99.90
16128;DHT22;8168;49.036;7.690;2024-01-27T00:55:23;1.60;99.90
16128;DHT22;8168;49.036;7.690;2024-01-27T00:57:54;1.60;99.90
16128;DHT22;8168;49.036;7.690;2024-01-27T01:00:24;1.60;99.90
16128;DHT22;8168;49.036;7.690;2024-01-27T01:02:55;1.60;99.90
16128;DHT22;8168;49.036;7.690;2024-01-27T01:05:26;1.60;99.90
16128;DHT22;8168;49.036;7.690;2024-01-27T01:07:56;1.60;99.90
16128;DHT22;8168;49.036;7.690;2024-01-27T01:10:27;1.60;99.90
16128;DHT22;8168;49.036;7.690;2024-01-27T01:12:58;1.60;99.90
16128;DHT22;8168;49.036;7.690;2024-01-27T01:15:28;1.60;99.90
16128;DHT22;8168;49.036;7.690;2024-01-27T01:17:59;1.60;99.90
16128;DHT22;8168;49.036;7.690;2024-01-27T01:20:30;1.60;99.90
16128;DHT22;8168;49.036;7.690;2024-01-27T01:23:00;1.60;99.90
16128;DHT22;8168;49.036;7.690;2024-01-27T01:25:31;1.50;99.90
16128;DHT22;8168;49.036;7.690;2024-01-27T01:28:02;1.50;99.90
16128;DHT22;8168;49.036;7.690;2024-01-27T01:30:33;1.40;99.90
16128;DHT22;8168;49.036;7.690;2024-01-27T01:33:04;1.50;99.90
16128;DHT22;8168;49.036;7.690;2024-01-27T01:35:35;1.30;99.90
16128;DHT22;8168;49.036;7.690;2024-01-27T01:38:05;1.30;99.90
16128;DHT22;8168;49.036;7.690;2024-01-27T01:40:36;1.40;99.90
16128;DHT22;8168;49.036;7.690;2024-01-27T01:43:10;1.30;99.90
16128;DHT22;8168;49.036;7.690;2024-01-27T01:45:42;1.40;99.90
16128;DHT22;8168;49.036;7.690;2024-01-27T01:48:12;1.30;99.90
16128;DHT22;8168;49.036;7.690;2024-01-27T01:50:43;1.30;99.90
16128;DHT22;8168;49.036;7.690;2024-01-27T01:53:14;1.30;99.90
16128;DHT22;8168;49.036;7.690;2024-01-27T01:55:45;1.30;99.90
16128;DHT22;8168;49.036;7.690;2024-01-27T01:58:17;1.20;99.90
16128;DHT22;8168;49.036;7.690;2024-01-27T02:00:47;1.10;99.90
16128;DHT22;8168;49.036;7.690;2024-01-27T02:03:18;1.10;99.90
16128;DHT22;8168;49.036;7.690;2024-01-27T02:05:49;1.10;99.90
16128;DHT22;8168;49.036;7.690;2024-01-27T02:08:19;1.10;99.90
16128;DHT22;8168;49.036;7.690;2024-01-27T02:10:50;1.10;99.90
16128;DHT22;8168;49.036;7.690;2024-01-27T02:13:22;1.10;99.90
16128;DHT22;8168;49.036;7.690;2024-01-27T02:15:53;1.10;99.90
16128;DHT22;8168;49.036;7.690;2024-01-27T02:18:23;1.10;99.90
16128;DHT22;8168;49.036;7.690;2024-01-27T02:20:54;1.10;99.90
16128;DHT22;8168;49.036;7.690;2024-01-27T02:23:25;1.10;99.90
16128;DHT22;8168;49.036;7.690;2024-01-27T02:25:55;1.20;99.90
16128;DHT22;8168;49.036;7.690;2024-01-27T02:28:26;1.00;99.90
16128;DHT22;8168;49.036;7.690;2024-01-27T02:30:56;0.90;99.90
16128;DHT22;8168;49.036;7.690;2024-01-27T02:33:27;1.00;99.90
16128;DHT22;8168;49.036;7.690;2024-01-27T02:35:58;1.10;99.90
16128;DHT22;8168;49.036;7.690;2024-01-27T02:38:28;1.00;99.90
16128;DHT22;8168;49.036;7.690;2024-01-27T02:40:59;1.00;99.90
16128;DHT22;8168;49.036;7.690;2024-01-27T02:43:30;1.00;99.90
16128;DHT22;8168;49.036;7.690;2024-01-27T02:46:00;1.10;99.90
16128;DHT22;8168;49.036;7.690;2024-01-27T02:48:31;0.80;99.90
16128;DHT22;8168;49.036;7.690;2024-01-27T02:51:05;0.70;99.90
16128;DHT22;8168;49.036;7.690;2024-01-27T02:53:35;0.80;99.90
16128;DHT22;8168;49.036;7.690;2024-01-27T02:56:07;0.60;99.90
16128;DHT22;8168;49.036;7.690;2024-01-27T02:58:41;0.70;99.90
16128;DHT22;8168;49.036;7.690;2024-01-27T03:01:11;1.00;99.90
16128;DHT22;8168;49.036;7.690;2024-01-27T03:03:42;0.70;99.90
16128;DHT22;8168;49.036;7.690;2024-01-27T03:06:13;1.00;99.90
16128;DHT22;8168;49.036;7.690;2024-01-27T03:08:43;0.70;99.90
16128;DHT22;8168;49.036;7.690;2024-01-27T03:11:14;0.70;99.90
16128;DHT22;8168;49.036;7.690;2024-01-27T03:13:45;0.50;99.90
16128;DHT22;8168;49.036;7.690;2024-01-27T03:16:15;0.30;99.90
16128;DHT22;8168;49.036;7.690;2024-01-27T03:18:48;0.30;99.90
16128;DHT22;8168;49.036;7.690;2024-01-27T03:23:49;0.30;99.90
16128;DHT22;8168;49.036;7.690;2024-01-27T03:26:20;0.40;99.90
16128;DHT22;8168;49.036;7.690;2024-01-27T03:38:57;0.30;99.90
16128;DHT22;8168;49.036;7.690;2024-01-27T03:41:28;0.30;99.90
16128;DHT22;8168;49.036;7.690;2024-01-27T04:06:39;0.30;99.90
16128;DHT22;8168;49.036;7.690;2024-01-27T04:09:10;0.30;99.90
16128;DHT22;8168;49.036;7.690;2024-01-27T04:11:41;0.30;99.90
16128;DHT22;8168;49.036;7.690;2024-01-27T04:24:16;0.10;99.90
16128;DHT22;8168;49.036;7.690;2024-01-27T04:26:46;0.10;99.90
16128;DHT22;8168;49.036;7.690;2024-01-27T04:29:17;0.10;99.90
16128;DHT22;8168;49.036;7.690;2024-01-27T04:31:48;0.00;99.90
16128;DHT22;8168;49.036;7.690;2024-01-27T04:34:19;0.00;99.90
16128;DHT22;8168;49.036;7.690;2024-01-27T04:36:49;0.00;99.90
16128;DHT22;8168;49.036;7.690;2024-01-27T04:54:26;-0.10;99.90
16128;DHT22;8168;49.036;7.690;2024-01-27T04:56:56;-0.10;99.90
16128;DHT22;8168;49.036;7.690;2024-01-27T05:01:58;-0.10;99.90
16128;DHT22;8168;49.036;7.690;2024-01-27T05:14:33;-0.10;99.90
16128;DHT22;8168;49.036;7.690;2024-01-27T05:17:03;-0.10;99.90
16128;DHT22;8168;49.036;7.690;2024-01-27T05:19:34;-0.10;99.90
16128;DHT22;8168;49.036;7.690;2024-01-27T05:39:43;-0.30;99.90
16128;DHT22;8168;49.036;7.690;2024-01-27T05:57:20;-0.50;99.90
16128;DHT22;8168;49.036;7.690;2024-01-27T06:12:26;-0.60;99.90
16128;DHT22;8168;49.036;7.690;2024-01-27T06:25:04;-0.50;99.90
16128;DHT22;8168;49.036;7.690;2024-01-27T06:30:07;-0.50;99.90
16128;DHT22;8168;49.036;7.690;2024-01-27T06:57:49;-0.50;99.90
16128;DHT22;8168;49.036;7.690;2024-01-27T07:00:20;-0.50;99.90
16128;DHT22;8168;49.036;7.690;2024-01-27T07:10:24;-0.50;99.90
16128;DHT22;8168;49.036;7.690;2024-01-27T07:17:57;-0.60;99.90
16128;DHT22;8168;49.036;7.690;2024-01-27T07:20:28;-0.60;99.90
16128;DHT22;8168;49.036;7.690;2024-01-27T07:25:30;-0.60;99.90
16128;DHT22;8168;49.036;7.690;2024-01-27T07:33:03;-0.70;99.90
16128;DHT22;8168;49.036;7.690;2024-01-27T07:55:47;-1.30;99.90
16128;DHT22;8168;49.036;7.690;2024-01-27T08:41:05;-0.60;99.90
16128;DHT22;8168;49.036;7.690;2024-01-27T08:48:41;-0.30;99.90
16128;DHT22;8168;49.036;7.690;2024-01-27T08:53:43;-0.30;99.90
16128;DHT22;8168;49.036;7.690;2024-01-27T09:11:26;0.20;99.90
16128;DHT22;8168;49.036;7.690;2024-01-27T09:14:00;0.20;99.90
16128;DHT22;8168;49.036;7.690;2024-01-27T09:29:06;0.60;99.90
16128;DHT22;8168;49.036;7.690;2024-01-27T09:31:37;0.70;99.90
16128;DHT22;8168;49.036;7.690;2024-01-27T09:41:41;0.90;99.90
16128;DHT22;8168;49.036;7.690;2024-01-27T09:44:12;1.10;99.90
16128;DHT22;8168;49.036;7.690;2024-01-27T09:46:45;1.20;99.90
16128;DHT22;8168;49.036;7.690;2024-01-27T09:56:51;1.80;99.90
16128;DHT22;8168;49.036;7.690;2024-01-27T09:59:23;2.00;99.90
16128;DHT22;8168;49.036;7.690;2024-01-27T10:01:53;2.30;99.90
16128;DHT22;8168;49.036;7.690;2024-01-27T10:04:25;2.40;99.90
16128;DHT22;8168;49.036;7.690;2024-01-27T10:06:58;2.60;99.90
16128;DHT22;8168;49.036;7.690;2024-01-27T10:09:28;2.70;99.90
16128;DHT22;8168;49.036;7.690;2024-01-27T10:12:01;2.90;99.90
16128;DHT22;8168;49.036;7.690;2024-01-27T10:14:41;3.10;99.90
16128;DHT22;8168;49.036;7.690;2024-01-27T10:17:12;3.40;99.90
16128;DHT22;8168;49.036;7.690;2024-01-27T10:27:18;4.20;99.90
16128;DHT22;8168;49.036;7.690;2024-01-27T10:29:55;4.30;99.90
16128;DHT22;8168;49.036;7.690;2024-01-27T10:32:25;4.40;99.90
16128;DHT22;8168;49.036;7.690;2024-01-27T10:35:03;4.40;99.90
16128;DHT22;8168;49.036;7.690;2024-01-27T10:37:37;4.40;99.90
16128;DHT22;8168;49.036;7.690;2024-01-27T10:40:08;4.40;99.90
16128;DHT22;8168;49.036;7.690;2024-01-27T10:42:39;4.40;99.90
16128;DHT22;8168;49.036;7.690;2024-01-27T10:45:11;4.40;99.90
16128;DHT22;8168;49.036;7.690;2024-01-27T10:47:42;4.50;99.90
16128;DHT22;8168;49.036;7.690;2024-01-27T10:50:14;4.60;99.90
16128;DHT22;8168;49.036;7.690;2024-01-27T10:52:46;4.70;99.90
16128;DHT22;8168;49.036;7.690;2024-01-27T10:55:17;4.80;99.90
16128;DHT22;8168;49.036;7.690;2024-01-27T10:57:49;5.00;99.90
16128;DHT22;8168;49.036;7.690;2024-01-27T11:00:21;5.20;99.90
16128;DHT22;8168;49.036;7.690;2024-01-27T11:02:54;5.30;99.90
16128;DHT22;8168;49.036;7.690;2024-01-27T11:05:28;5.50;99.90
16128;DHT22;8168;49.036;7.690;2024-01-27T11:08:00;5.70;99.90
16128;DHT22;8168;49.036;7.690;2024-01-27T11:10:31;5.80;99.90
16128;DHT22;8168;49.036;7.690;2024-01-27T11:13:07;6.00;99.90
16128;DHT22;8168;49.036;7.690;2024-01-27T11:15:38;6.20;99.90
16128;DHT22;8168;49.036;7.690;2024-01-27T11:18:08;6.30;99.90
16128;DHT22;8168;49.036;7.690;2024-01-27T11:20:44;6.40;99.90
16128;DHT22;8168;49.036;7.690;2024-01-27T11:23:15;6.60;99.90
16128;DHT22;8168;49.036;7.690;2024-01-27T11:25:46;6.70;99.90
16128;DHT22;8168;49.036;7.690;2024-01-27T11:28:16;6.80;99.90
16128;DHT22;8168;49.036;7.690;2024-01-27T11:30:48;6.90;99.90
16128;DHT22;8168;49.036;7.690;2024-01-27T11:33:19;6.90;99.90
16128;DHT22;8168;49.036;7.690;2024-01-27T11:36:02;6.90;99.90
16128;DHT22;8168;49.036;7.690;2024-01-27T11:38:35;10.20;99.90
16128;DHT22;8168;49.036;7.690;2024-01-27T11:41:06;7.20;99.90
16128;DHT22;8168;49.036;7.690;2024-01-27T11:43:37;7.40;99.90
16128;DHT22;8168;49.036;7.690;2024-01-27T11:46:08;7.50;99.90
16128;DHT22;8168;49.036;7.690;2024-01-27T11:48:42;7.70;99.90
16128;DHT22;8168;49.036;7.690;2024-01-27T11:51:14;8.00;99.90
16128;DHT22;8168;49.036;7.690;2024-01-27T11:53:44;8.10;99.90
16128;DHT22;8168;49.036;7.690;2024-01-27T11:56:15;8.20;99.90
16128;DHT22;8168;49.036;7.690;2024-01-27T11:58:47;8.40;99.90
16128;DHT22;8168;49.036;7.690;2024-01-27T12:01:18;8.60;99.90
16128;DHT22;8168;49.036;7.690;2024-01-27T12:03:49;8.80;99.90
16128;DHT22;8168;49.036;7.690;2024-01-27T12:06:20;9.10;99.90
16128;DHT22;8168;49.036;7.690;2024-01-27T12:08:53;9.40;99.90
16128;DHT22;8168;49.036;7.690;2024-01-27T12:11:27;9.80;99.90
16128;DHT22;8168;49.036;7.690;2024-01-27T12:14:00;10.10;99.90
16128;DHT22;8168;49.036;7.690;2024-01-27T12:16:31;9.00;99.90
16128;DHT22;8168;49.036;7.690;2024-01-27T12:19:02;10.10;99.90
16128;DHT22;8168;49.036;7.690;2024-01-27T12:21:32;10.20;99.90
16128;DHT22;8168;49.036;7.690;2024-01-27T12:24:03;10.20;99.90
16128;DHT22;8168;49.036;7.690;2024-01-27T12:26:34;10.10;99.90
16128;DHT22;8168;49.036;7.690;2024-01-27T12:29:10;10.00;99.90
16128;DHT22;8168;49.036;7.690;2024-01-27T12:31:41;10.00;99.90
16128;DHT22;8168;49.036;7.690;2024-01-27T12:34:12;10.00;99.90
16128;DHT22;8168;49.036;7.690;2024-01-27T12:36:42;9.90;99.90
16128;DHT22;8168;49.036;7.690;2024-01-27T12:39:13;9.70;99.90
16128;DHT22;8168;49.036;7.690;2024-01-27T12:41:44;9.50;99.90
16128;DHT22;8168;49.036;7.690;2024-01-27T12:44:14;9.40;99.90
16128;DHT22;8168;49.036;7.690;2024-01-27T12:46:45;9.30;99.90
16128;DHT22;8168;49.036;7.690;2024-01-27T12:49:16;9.30;99.90
16128;DHT22;8168;49.036;7.690;2024-01-27T12:51:47;9.30;99.90
16128;DHT22;8168;49.036;7.690;2024-01-27T12:54:18;9.30;99.90
16128;DHT22;8168;49.036;7.690;2024-01-27T12:56:49;9.30;99.90
16128;DHT22;8168;49.036;7.690;2024-01-27T12:59:20;9.30;99.90
16128;DHT22;8168;49.036;7.690;2024-01-27T13:01:51;9.40;99.90
16128;DHT22;8168;49.036;7.690;2024-01-27T13:04:21;9.40;99.90
16128;DHT22;8168;49.036;7.690;2024-01-27T13:06:53;9.40;99.90
16128;DHT22;8168;49.036;7.690;2024-01-27T13:09:25;9.40;99.90
16128;DHT22;8168;49.036;7.690;2024-01-27T13:11:55;9.40;99.90
16128;DHT22;8168;49.036;7.690;2024-01-27T13:14:26;9.40;99.90
16128;DHT22;8168;49.036;7.690;2024-01-27T13:16:56;9.40;99.90
16128;DHT22;8168;49.036;7.690;2024-01-27T13:19:29;9.40;99.90
16128;DHT22;8168;49.036;7.690;2024-01-27T13:22:01;9.40;99.90
16128;DHT22;8168;49.036;7.690;2024-01-27T13:24:32;9.40;99.90
16128;DHT22;8168;49.036;7.690;2024-01-27T13:27:02;9.40;99.90
16128;DHT22;8168;49.036;7.690;2024-01-27T13:29:34;9.40;99.90
16128;DHT22;8168;49.036;7.690;2024-01-27T13:32:05;9.40;99.90
16128;DHT22;8168;49.036;7.690;2024-01-27T13:34:35;9.50;99.90
16128;DHT22;8168;49.036;7.690;2024-01-27T13:37:06;9.40;99.90
16128;DHT22;8168;49.036;7.690;2024-01-27T13:39:37;9.40;99.90
16128;DHT22;8168;49.036;7.690;2024-01-27T13:42:07;9.50;99.90
16128;DHT22;8168;49.036;7.690;2024-01-27T13:44:38;9.50;99.90
16128;DHT22;8168;49.036;7.690;2024-01-27T13:47:09;9.50;99.90
16128;DHT22;8168;49.036;7.690;2024-01-27T13:49:40;9.50;99.90
16128;DHT22;8168;49.036;7.690;2024-01-27T13:52:11;9.50;99.90
16128;DHT22;8168;49.036;7.690;2024-01-27T13:54:42;9.50;99.90
16128;DHT22;8168;49.036;7.690;2024-01-27T13:57:15;9.50;99.90
16128;DHT22;8168;49.036;7.690;2024-01-27T13:59:46;9.50;99.90
16128;DHT22;8168;49.036;7.690;2024-01-27T14:02:16;9.50;99.90
16128;DHT22;8168;49.036;7.690;2024-01-27T14:04:47;9.50;99.90
16128;DHT22;8168;49.036;7.690;2024-01-27T14:07:17;9.50;99.90
16128;DHT22;8168;49.036;7.690;2024-01-27T14:09:48;9.60;99.90
16128;DHT22;8168;49.036;7.690;2024-01-27T14:12:19;9.60;99.90
16128;DHT22;8168;49.036;7.690;2024-01-27T14:14:50;9.50;99.90
16128;DHT22;8168;49.036;7.690;2024-01-27T14:17:21;9.50;99.90
16128;DHT22;8168;49.036;7.690;2024-01-27T14:19:51;9.50;99.90
16128;DHT22;8168;49.036;7.690;2024-01-27T14:22:22;9.50;99.90
16128;DHT22;8168;49.036;7.690;2024-01-27T14:24:53;9.40;99.00
16128;DHT22;8168;49.036;7.690;2024-01-27T14:27:24;9.30;99.70
16128;DHT22;8168;49.036;7.690;2024-01-27T14:29:57;9.20;98.00
16128;DHT22;8168;49.036;7.690;2024-01-27T14:32:28;6.50;98.00
16128;DHT22;8168;49.036;7.690;2024-01-27T14:34:59;9.00;99.40
16128;DHT22;8168;49.036;7.690;2024-01-27T14:37:29;8.90;99.90
16128;DHT22;8168;49.036;7.690;2024-01-27T14:40:00;8.90;99.70
16128;DHT22;8168;49.036;7.690;2024-01-27T14:42:30;8.90;99.90
16128;DHT22;8168;49.036;7.690;2024-01-27T14:45:01;8.90;99.90
16128;DHT22;8168;49.036;7.690;2024-01-27T14:47:32;8.90;99.90
16128;DHT22;8168;49.036;7.690;2024-01-27T14:50:04;8.80;99.90
16128;DHT22;8168;49.036;7.690;2024-01-27T14:52:36;8.70;99.90
16128;DHT22;8168;49.036;7.690;2024-01-27T14:55:07;8.60;99.90
16128;DHT22;8168;49.036;7.690;2024-01-27T14:57:39;8.50;99.90
16128;DHT22;8168;49.036;7.690;2024-01-27T15:00:11;8.50;99.90
16128;DHT22;8168;49.036;7.690;2024-01-27T15:02:45;8.40;99.90
16128;DHT22;8168;49.036;7.690;2024-01-27T15:05:15;8.40;99.90
16128;DHT22;8168;49.036;7.690;2024-01-27T15:07:46;8.30;99.90
16128;DHT22;8168;49.036;7.690;2024-01-27T15:10:17;8.20;99.90
16128;DHT22;8168;49.036;7.690;2024-01-27T15:12:47;8.20;99.90
16128;DHT22;8168;49.036;7.690;2024-01-27T15:15:18;8.00;99.90
16128;DHT22;8168;49.036;7.690;2024-01-27T15:17:49;7.90;99.90
16128;DHT22;8168;49.036;7.690;2024-01-27T15:20:20;7.80;99.90
16128;DHT22;8168;49.036;7.690;2024-01-27T15:22:50;7.70;99.90
16128;DHT22;8168;49.036;7.690;2024-01-27T15:25:21;7.40;99.90
16128;DHT22;8168;49.036;7.690;2024-01-27T15:27:52;7.30;99.90
16128;DHT22;8168;49.036;7.690;2024-01-27T15:30:24;7.10;99.90
16128;DHT22;8168;49.036;7.690;2024-01-27T15:32:54;6.70;99.90
16128;DHT22;8168;49.036;7.690;2024-01-27T15:35:25;6.40;99.90
16128;DHT22;8168;49.036;7.690;2024-01-27T15:38:00;6.30;99.90
16128;DHT22;8168;49.036;7.690;2024-01-27T15:40:31;6.10;99.90
16128;DHT22;8168;49.036;7.690;2024-01-27T15:43:01;6.10;99.90
16128;DHT22;8168;49.036;7.690;2024-01-27T15:45:32;6.10;99.90
16128;DHT22;8168;49.036;7.690;2024-01-27T15:48:03;6.00;99.90
16128;DHT22;8168;49.036;7.690;2024-01-27T15:50:34;5.90;99.90
16128;DHT22;8168;49.036;7.690;2024-01-27T15:53:05;5.90;99.90
16128;DHT22;8168;49.036;7.690;2024-01-27T15:55:35;5.70;99.90
16128;DHT22;8168;49.036;7.690;2024-01-27T15:58:06;5.60;99.90
16128;DHT22;8168;49.036;7.690;2024-01-27T16:00:37;5.50;99.90
16128;DHT22;8168;49.036;7.690;2024-01-27T16:03:08;5.50;99.90
16128;DHT22;8168;49.036;7.690;2024-01-27T16:05:38;5.40;99.90
16128;DHT22;8168;49.036;7.690;2024-01-27T16:08:09;5.30;99.90
16128;DHT22;8168;49.036;7.690;2024-01-27T16:10:41;5.20;99.90
16128;DHT22;8168;49.036;7.690;2024-01-27T16:13:12;5.20;99.90
16128;DHT22;8168;49.036;7.690;2024-01-27T16:15:42;5.20;99.90
16128;DHT22;8168;49.036;7.690;2024-01-27T16:18:13;5.10;99.90
16128;DHT22;8168;49.036;7.690;2024-01-27T16:20:44;5.10;99.90
16128;DHT22;8168;49.036;7.690;2024-01-27T16:23:19;5.00;99.90
16128;DHT22;8168;49.036;7.690;2024-01-27T16:25:50;4.90;99.90
16128;DHT22;8168;49.036;7.690;2024-01-27T16:28:21;4.90;99.90
16128;DHT22;8168;49.036;7.690;2024-01-27T16:30:51;4.80;99.90
16128;DHT22;8168;49.036;7.690;2024-01-27T16:33:22;4.80;99.90
16128;DHT22;8168;49.036;7.690;2024-01-27T16:35:52;4.70;99.90
16128;DHT22;8168;49.036;7.690;2024-01-27T16:38:24;4.60;99.90
16128;DHT22;8168;49.036;7.690;2024-01-27T16:40:54;4.50;99.90
16128;DHT22;8168;49.036;7.690;2024-01-27T16:43:25;4.50;99.90
16128;DHT22;8168;49.036;7.690;2024-01-27T16:45:56;4.40;99.90
16128;DHT22;8168;49.036;7.690;2024-01-27T16:48:26;4.40;99.90
16128;DHT22;8168;49.036;7.690;2024-01-27T16:50:57;4.30;99.90
16128;DHT22;8168;49.036;7.690;2024-01-27T16:53:28;4.30;99.90
16128;DHT22;8168;49.036;7.690;2024-01-27T16:56:01;4.20;99.90
16128;DHT22;8168;49.036;7.690;2024-01-27T16:58:31;4.20;99.90
16128;DHT22;8168;49.036;7.690;2024-01-27T17:01:02;4.10;99.90
16128;DHT22;8168;49.036;7.690;2024-01-27T17:03:33;4.00;99.90
16128;DHT22;8168;49.036;7.690;2024-01-27T17:06:03;4.00;99.90
16128;DHT22;8168;49.036;7.690;2024-01-27T17:08:36;3.90;99.90
16128;DHT22;8168;49.036;7.690;2024-01-27T17:11:07;3.80;99.90
16128;DHT22;8168;49.036;7.690;2024-01-27T17:13:37;3.80;99.90
16128;DHT22;8168;49.036;7.690;2024-01-27T17:16:09;3.80;99.90
16128;DHT22;8168;49.036;7.690;2024-01-27T17:18:39;3.70;99.90
16128;DHT22;8168;49.036;7.690;2024-01-27T17:21:10;3.70;99.90
16128;DHT22;8168;49.036;7.690;2024-01-27T17:23:40;3.70;99.90
16128;DHT22;8168;49.036;7.690;2024-01-27T17:26:11;4.00;99.90
16128;DHT22;8168;49.036;7.690;2024-01-27T17:28:42;3.60;99.90
16128;DHT22;8168;49.036;7.690;2024-01-27T17:31:12;3.60;99.90
16128;DHT22;8168;49.036;7.690;2024-01-27T17:33:46;3.50;99.90
16128;DHT22;8168;49.036;7.690;2024-01-27T17:36:17;5.40;99.90
16128;DHT22;8168;49.036;7.690;2024-01-27T17:38:50;3.50;99.90
16128;DHT22;8168;49.036;7.690;2024-01-27T17:41:20;3.80;99.90
16128;DHT22;8168;49.036;7.690;2024-01-27T17:43:51;3.40;99.90
16128;DHT22;8168;49.036;7.690;2024-01-27T17:46:21;3.40;99.90
16128;DHT22;8168;49.036;7.690;2024-01-27T17:48:52;3.30;99.90
16128;DHT22;8168;49.036;7.690;2024-01-27T17:51:23;3.30;99.90
16128;DHT22;8168;49.036;7.690;2024-01-27T17:53:53;3.30;99.90
16128;DHT22;8168;49.036;7.690;2024-01-27T17:56:24;3.50;99.90
16128;DHT22;8168;49.036;7.690;2024-01-27T17:58:55;3.20;99.90
16128;DHT22;8168;49.036;7.690;2024-01-27T18:01:26;3.20;99.90
16128;DHT22;8168;49.036;7.690;2024-01-27T18:03:56;3.30;99.90
16128;DHT22;8168;49.036;7.690;2024-01-27T18:06:27;3.10;99.90
16128;DHT22;8168;49.036;7.690;2024-01-27T18:08:59;3.10;99.90
16128;DHT22;8168;49.036;7.690;2024-01-27T18:11:29;3.20;99.90
16128;DHT22;8168;49.036;7.690;2024-01-27T18:14:00;3.10;99.90
16128;DHT22;8168;49.036;7.690;2024-01-27T18:16:31;3.00;99.90
16128;DHT22;8168;49.036;7.690;2024-01-27T18:19:01;3.00;99.90
16128;DHT22;8168;49.036;7.690;2024-01-27T18:21:32;3.00;99.90
16128;DHT22;8168;49.036;7.690;2024-01-27T18:24:03;3.00;99.90
16128;DHT22;8168;49.036;7.690;2024-01-27T18:26:34;2.90;99.90
16128;DHT22;8168;49.036;7.690;2024-01-27T18:29:05;2.90;99.90
16128;DHT22;8168;49.036;7.690;2024-01-27T18:31:36;3.00;99.90
16128;DHT22;8168;49.036;7.690;2024-01-27T18:34:11;2.80;99.90
16128;DHT22;8168;49.036;7.690;2024-01-27T18:36:44;2.70;99.90
16128;DHT22;8168;49.036;7.690;2024-01-27T18:39:15;2.70;99.90
16128;DHT22;8168;49.036;7.690;2024-01-27T18:41:47;2.60;99.90
16128;DHT22;8168;49.036;7.690;2024-01-27T18:44:17;2.90;99.90
16128;DHT22;8168;49.036;7.690;2024-01-27T18:46:48;2.60;99.90
16128;DHT22;8168;49.036;7.690;2024-01-27T18:49:19;2.60;99.90
16128;DHT22;8168;49.036;7.690;2024-01-27T18:51:49;2.60;99.90
16128;DHT22;8168;49.036;7.690;2024-01-27T18:54:20;2.50;99.90
16128;DHT22;8168;49.036;7.690;2024-01-27T18:56:52;2.80;99.90
16128;DHT22;8168;49.036;7.690;2024-01-27T18:59:25;2.50;99.90
16128;DHT22;8168;49.036;7.690;2024-01-27T19:01:56;2.40;99.90
16128;DHT22;8168;49.036;7.690;2024-01-27T19:04:27;2.50;99.90
16128;DHT22;8168;49.036;7.690;2024-01-27T19:06:58;2.50;99.90
16128;DHT22;8168;49.036;7.690;2024-01-27T19:09:29;2.30;99.90
16128;DHT22;8168;49.036;7.690;2024-01-27T19:11:59;2.30;99.90
16128;DHT22;8168;49.036;7.690;2024-01-27T19:14:30;2.30;99.90
16128;DHT22;8168;49.036;7.690;2024-01-27T19:17:00;2.20;99.90
16128;DHT22;8168;49.036;7.690;2024-01-27T19:19:32;2.20;99.90
16128;DHT22;8168;49.036;7.690;2024-01-27T19:22:03;2.30;99.90
16128;DHT22;8168;49.036;7.690;2024-01-27T19:24:34;2.20;99.90
16128;DHT22;8168;49.036;7.690;2024-01-27T19:27:06;1.90;99.90
16128;DHT22;8168;49.036;7.690;2024-01-27T19:29:37;2.10;99.90
16128;DHT22;8168;49.036;7.690;2024-01-27T19:32:07;2.10;99.90
16128;DHT22;8168;49.036;7.690;2024-01-27T19:34:38;2.10;99.90
16128;DHT22;8168;49.036;7.690;2024-01-27T19:37:09;2.00;99.90
16128;DHT22;8168;49.036;7.690;2024-01-27T19:39:39;2.00;99.90
16128;DHT22;8168;49.036;7.690;2024-01-27T19:42:11;2.00;99.90
16128;DHT22;8168;49.036;7.690;2024-01-27T19:44:41;2.00;99.90
16128;DHT22;8168;49.036;7.690;2024-01-27T19:47:12;2.00;99.90
16128;DHT22;8168;49.036;7.690;2024-01-27T19:49:43;1.90;99.90
16128;DHT22;8168;49.036;7.690;2024-01-27T19:52:13;1.90;99.90
16128;DHT22;8168;49.036;7.690;2024-01-27T19:54:44;1.80;99.90
16128;DHT22;8168;49.036;7.690;2024-01-27T19:57:14;1.80;99.90
16128;DHT22;8168;49.036;7.690;2024-01-27T19:59:45;1.80;99.90
16128;DHT22;8168;49.036;7.690;2024-01-27T20:02:16;1.80;99.90
16128;DHT22;8168;49.036;7.690;2024-01-27T20:04:46;1.80;99.90
16128;DHT22;8168;49.036;7.690;2024-01-27T20:07:18;1.80;99.90
16128;DHT22;8168;49.036;7.690;2024-01-27T20:09:50;1.80;99.90
16128;DHT22;8168;49.036;7.690;2024-01-27T20:12:20;1.80;99.90
16128;DHT22;8168;49.036;7.690;2024-01-27T20:14:51;1.80;99.90
16128;DHT22;8168;49.036;7.690;2024-01-27T20:17:21;1.80;99.90
16128;DHT22;8168;49.036;7.690;2024-01-27T20:19:52;1.80;99.90
16128;DHT22;8168;49.036;7.690;2024-01-27T20:22:24;1.80;99.90
16128;DHT22;8168;49.036;7.690;2024-01-27T20:24:55;1.80;99.90
16128;DHT22;8168;49.036;7.690;2024-01-27T20:27:25;1.80;99.90
16128;DHT22;8168;49.036;7.690;2024-01-27T20:29:56;1.70;99.90
16128;DHT22;8168;49.036;7.690;2024-01-27T20:32:27;1.80;99.90
16128;DHT22;8168;49.036;7.690;2024-01-27T20:34:58;1.70;99.90
16128;DHT22;8168;49.036;7.690;2024-01-27T20:37:28;1.70;99.90
16128;DHT22;8168;49.036;7.690;2024-01-27T20:39:59;1.70;99.90
16128;DHT22;8168;49.036;7.690;2024-01-27T20:42:30;1.60;99.90
16128;DHT22;8168;49.036;7.690;2024-01-27T20:45:00;1.60;99.90
16128;DHT22;8168;49.036;7.690;2024-01-27T20:47:32;1.60;99.90
16128;DHT22;8168;49.036;7.690;2024-01-27T20:50:03;1.60;99.90
16128;DHT22;8168;49.036;7.690;2024-01-27T20:52:33;1.60;99.90
16128;DHT22;8168;49.036;7.690;2024-01-27T20:55:04;1.50;99.90
16128;DHT22;8168;49.036;7.690;2024-01-27T20:57:35;1.50;99.90
16128;DHT22;8168;49.036;7.690;2024-01-27T21:00:06;1.50;99.90
16128;DHT22;8168;49.036;7.690;2024-01-27T21:02:37;1.50;99.90
16128;DHT22;8168;49.036;7.690;2024-01-27T21:05:08;1.40;99.90
16128;DHT22;8168;49.036;7.690;2024-01-27T21:07:38;1.50;99.90
16128;DHT22;8168;49.036;7.690;2024-01-27T21:10:09;1.40;99.90
16128;DHT22;8168;49.036;7.690;2024-01-27T21:12:40;1.30;99.90
16128;DHT22;8168;49.036;7.690;2024-01-27T21:15:12;1.40;99.90
16128;DHT22;8168;49.036;7.690;2024-01-27T21:17:47;1.30;99.90
16128;DHT22;8168;49.036;7.690;2024-01-27T21:20:18;1.40;99.90